createdAt,value
2022-12-15T00:00:35.433Z,0
2022-12-15T00:01:38.711Z,0
2022-12-15T00:02:42.519Z,0
2022-12-15T00:03:46.108Z,0
2022-12-15T00:04:49.820Z,0
2022-12-15T00:05:52.863Z,0
2022-12-15T00:06:56.019Z,0
2022-12-15T00:07:59.227Z,0
2022-12-15T00:09:02.306Z,0
2022-12-15T00:10:05.753Z,0
2022-12-15T00:11:08.857Z,0
2022-12-15T00:12:12.166Z,0
2022-12-15T00:13:15.203Z,0
2022-12-15T00:14:18.323Z,0
2022-12-15T00:15:21.236Z,0
2022-12-15T00:16:23.715Z,0
2022-12-15T00:17:27.721Z,0
2022-12-15T00:18:30.290Z,0
2022-12-15T00:19:33.267Z,0
2022-12-15T00:20:36.041Z,0
2022-12-15T00:21:38.887Z,0
2022-12-15T00:22:41.655Z,0
2022-12-15T00:23:44.713Z,0
2022-12-15T00:24:49.644Z,0
2022-12-15T00:25:53.091Z,0
2022-12-15T00:26:56.234Z,0
2022-12-15T00:27:58.634Z,0
2022-12-15T00:29:02.354Z,0
2022-12-15T00:30:05.345Z,0
2022-12-15T00:31:08.148Z,0
2022-12-15T00:32:11.898Z,0
2022-12-15T00:33:14.675Z,0
2022-12-15T00:34:17.829Z,0
2022-12-15T00:35:20.254Z,0
2022-12-15T00:36:22.399Z,0
2022-12-15T00:37:25.529Z,0
2022-12-15T00:38:28.232Z,0
2022-12-15T00:39:31.300Z,0
2022-12-15T00:40:34.458Z,0
2022-12-15T00:41:37.832Z,0
2022-12-15T00:42:41.334Z,0
2022-12-15T00:43:44.936Z,0
2022-12-15T00:44:47.899Z,0
2022-12-15T00:45:50.952Z,0
2022-12-15T00:46:53.694Z,0
2022-12-15T00:47:56.925Z,0
2022-12-15T00:49:00.638Z,0
2022-12-15T00:50:04.426Z,0
2022-12-15T00:51:07.011Z,0
2022-12-15T00:52:10.098Z,0
2022-12-15T00:53:13.153Z,0
2022-12-15T00:54:18.111Z,0
2022-12-15T00:55:21.210Z,0
2022-12-15T00:56:24.932Z,0
2022-12-15T00:57:28.137Z,0
2022-12-15T00:58:31.210Z,0
2022-12-15T00:59:34.268Z,0
2022-12-15T01:00:37.055Z,0
2022-12-15T01:01:40.227Z,0
2022-12-15T01:02:43.754Z,0
2022-12-15T01:03:48.427Z,0
2022-12-15T01:04:51.697Z,0
2022-12-15T01:05:54.189Z,0
2022-12-15T01:06:57.029Z,0
2022-12-15T01:08:00.148Z,0
2022-12-15T01:09:02.625Z,0
2022-12-15T01:10:06.397Z,0
2022-12-15T01:11:09.446Z,0
2022-12-15T01:12:12.077Z,0
2022-12-15T01:13:15.591Z,0
2022-12-15T01:14:18.907Z,0
2022-12-15T01:15:21.985Z,0
2022-12-15T01:16:24.707Z,0
2022-12-15T01:17:28.273Z,0
2022-12-15T01:18:31.675Z,0
2022-12-15T01:19:34.448Z,0
2022-12-15T01:20:38.060Z,0
2022-12-15T01:21:40.212Z,0
2022-12-15T01:22:42.908Z,0
2022-12-15T01:23:46.162Z,0
2022-12-15T01:24:48.936Z,0
2022-12-15T01:25:52.186Z,0
2022-12-15T01:26:55.236Z,0
2022-12-15T01:27:58.345Z,0
2022-12-15T01:29:01.802Z,0
2022-12-15T01:30:05.192Z,0
2022-12-15T01:31:08.047Z,0
2022-12-15T01:32:11.269Z,0
2022-12-15T01:33:14.048Z,0
2022-12-15T01:34:16.633Z,0
2022-12-15T01:35:19.955Z,0
2022-12-15T01:36:23.271Z,0
2022-12-15T01:37:25.691Z,0
2022-12-15T01:38:28.227Z,0
2022-12-15T01:39:31.000Z,0
2022-12-15T01:40:33.977Z,0
2022-12-15T01:41:36.391Z,0
2022-12-15T01:42:38.886Z,0
2022-12-15T01:43:41.805Z,0
2022-12-15T01:44:45.296Z,0
2022-12-15T01:45:48.698Z,0
2022-12-15T01:46:51.560Z,0
2022-12-15T01:47:55.293Z,0
2022-12-15T01:48:58.729Z,0
2022-12-15T01:50:01.320Z,0
2022-12-15T01:51:04.170Z,0
2022-12-15T01:52:06.688Z,0
2022-12-15T01:53:09.779Z,0
2022-12-15T01:54:12.490Z,0
2022-12-15T01:55:14.998Z,0
2022-12-15T01:56:17.703Z,0
2022-12-15T01:57:20.768Z,0
2022-12-15T01:58:23.999Z,0
2022-12-15T01:59:26.821Z,0
2022-12-15T02:00:30.027Z,0
2022-12-15T02:01:33.650Z,0
2022-12-15T02:02:40.293Z,0
2022-12-15T02:03:44.585Z,0
2022-12-15T02:04:48.009Z,0
2022-12-15T02:05:50.774Z,0
2022-12-15T02:06:54.152Z,0
2022-12-15T02:07:56.921Z,0
2022-12-15T02:09:00.041Z,0
2022-12-15T02:10:02.663Z,0
2022-12-15T02:11:04.874Z,0
2022-12-15T02:12:08.478Z,0
2022-12-15T02:13:10.775Z,0
2022-12-15T02:14:13.633Z,0
2022-12-15T02:15:17.022Z,0
2022-12-15T02:16:20.448Z,0
2022-12-15T02:17:24.756Z,0
2022-12-15T02:18:27.645Z,0
2022-12-15T02:19:30.414Z,0
2022-12-15T02:20:32.629Z,0
2022-12-15T02:21:35.148Z,0
2022-12-15T02:22:38.277Z,0
2022-12-15T02:23:41.533Z,0
2022-12-15T02:24:44.317Z,0
2022-12-15T02:25:52.733Z,0
2022-12-15T02:26:55.832Z,0
2022-12-15T02:27:59.043Z,0
2022-12-15T02:29:01.938Z,0
2022-12-15T02:30:05.553Z,0
2022-12-15T02:31:09.029Z,0
2022-12-15T02:32:13.137Z,0
2022-12-15T02:33:16.333Z,0
2022-12-15T02:34:19.041Z,0
2022-12-15T02:35:22.397Z,0
2022-12-15T02:36:25.263Z,0
2022-12-15T02:37:28.511Z,0
2022-12-15T02:38:30.934Z,0
2022-12-15T02:39:34.017Z,0
2022-12-15T02:40:36.993Z,0
2022-12-15T02:41:39.753Z,0
2022-12-15T02:42:42.729Z,0
2022-12-15T02:43:45.035Z,0
2022-12-15T02:44:52.533Z,0
2022-12-15T02:45:55.941Z,0
2022-12-15T02:46:59.682Z,0
2022-12-15T02:48:03.181Z,0
2022-12-15T02:49:07.038Z,0
2022-12-15T02:50:10.399Z,0
2022-12-15T02:51:13.230Z,0
2022-12-15T02:52:16.271Z,0
2022-12-15T02:53:18.968Z,0
2022-12-15T02:54:21.929Z,0
2022-12-15T02:55:25.109Z,0
2022-12-15T02:56:28.156Z,0
2022-12-15T02:57:31.283Z,0
2022-12-15T02:58:33.819Z,0
2022-12-15T02:59:36.395Z,0
2022-12-15T03:00:39.717Z,0
2022-12-15T03:01:44.269Z,0
2022-12-15T03:02:51.996Z,0
2022-12-15T03:03:56.920Z,0
2022-12-15T03:05:00.552Z,0
2022-12-15T03:06:04.258Z,0
2022-12-15T03:07:07.037Z,0
2022-12-15T03:08:09.727Z,0
2022-12-15T03:09:12.423Z,0
2022-12-15T03:10:15.469Z,0
2022-12-15T03:11:17.894Z,0
2022-12-15T03:12:21.232Z,0
2022-12-15T03:13:24.100Z,0
2022-12-15T03:14:27.537Z,0
2022-12-15T03:15:34.982Z,0
2022-12-15T03:16:38.009Z,0
2022-12-15T03:17:41.446Z,0
2022-12-15T03:18:44.258Z,0
2022-12-15T03:19:47.451Z,0
2022-12-15T03:20:53.360Z,0
2022-12-15T03:21:56.430Z,0
2022-12-15T03:22:59.561Z,0
2022-12-15T03:24:02.564Z,0
2022-12-15T03:25:05.412Z,0
2022-12-15T03:26:08.744Z,0
2022-12-15T03:27:11.553Z,0
2022-12-15T03:28:13.698Z,0
2022-12-15T03:29:16.753Z,0
2022-12-15T03:30:19.794Z,0
2022-12-15T03:31:23.017Z,0
2022-12-15T03:32:26.737Z,0
2022-12-15T03:33:29.836Z,0
2022-12-15T03:34:36.374Z,0
2022-12-15T03:35:39.301Z,0
2022-12-15T03:36:42.704Z,0
2022-12-15T03:37:46.125Z,0
2022-12-15T03:38:52.663Z,0
2022-12-15T03:39:55.639Z,0
2022-12-15T03:40:59.000Z,0
2022-12-15T03:42:02.261Z,0
2022-12-15T03:43:04.152Z,0
2022-12-15T03:44:07.192Z,0
2022-12-15T03:45:09.877Z,0
2022-12-15T03:46:13.095Z,0
2022-12-15T03:47:16.316Z,0
2022-12-15T03:48:19.101Z,0
2022-12-15T03:49:21.800Z,0
2022-12-15T03:50:24.421Z,0
2022-12-15T03:51:27.910Z,0
2022-12-15T03:52:31.224Z,0
2022-12-15T03:53:33.941Z,0
2022-12-15T03:54:36.953Z,0
2022-12-15T03:55:39.729Z,0
2022-12-15T03:56:42.729Z,0
2022-12-15T03:57:45.522Z,0
2022-12-15T03:58:48.385Z,0
2022-12-15T03:59:51.171Z,0
2022-12-15T04:00:53.687Z,0
2022-12-15T04:01:57.232Z,0
2022-12-15T04:03:00.950Z,0
2022-12-15T04:04:05.007Z,0
2022-12-15T04:05:08.111Z,0
2022-12-15T04:06:11.281Z,0
2022-12-15T04:07:14.596Z,0
2022-12-15T04:08:17.858Z,0
2022-12-15T04:09:20.928Z,0
2022-12-15T04:10:25.285Z,0
2022-12-15T04:11:36.981Z,0
2022-12-15T04:12:39.478Z,0
2022-12-15T04:13:41.896Z,0
2022-12-15T04:14:44.678Z,0
2022-12-15T04:15:50.648Z,0
2022-12-15T04:16:53.530Z,0
2022-12-15T04:17:56.657Z,0
2022-12-15T04:19:00.013Z,0
2022-12-15T04:20:02.519Z,0
2022-12-15T04:21:05.885Z,0
2022-12-15T04:22:12.600Z,0
2022-12-15T04:23:21.546Z,0
2022-12-15T04:24:24.598Z,0
2022-12-15T04:25:27.779Z,0
2022-12-15T04:26:30.353Z,0
2022-12-15T04:27:32.848Z,0
2022-12-15T04:28:36.167Z,0
2022-12-15T04:29:38.962Z,0
2022-12-15T04:30:41.852Z,0
2022-12-15T04:31:45.409Z,0
2022-12-15T04:32:49.635Z,0
2022-12-15T04:33:52.337Z,0
2022-12-15T04:34:55.709Z,0
2022-12-15T04:35:58.583Z,0
2022-12-15T04:37:01.569Z,0
2022-12-15T04:38:04.727Z,0
2022-12-15T04:39:08.208Z,0
2022-12-15T04:40:11.250Z,0
2022-12-15T04:41:14.499Z,0
2022-12-15T04:42:17.468Z,0
2022-12-15T04:43:20.893Z,0
2022-12-15T04:44:23.692Z,0
2022-12-15T04:45:26.751Z,0
2022-12-15T04:46:30.108Z,0
2022-12-15T04:47:33.195Z,0
2022-12-15T04:48:35.625Z,0
2022-12-15T04:49:38.121Z,0
2022-12-15T04:50:41.282Z,0
2022-12-15T04:51:44.068Z,0
2022-12-15T04:52:47.502Z,0
2022-12-15T04:53:50.934Z,0
2022-12-15T04:54:54.669Z,0
2022-12-15T04:55:57.728Z,0
2022-12-15T04:57:00.498Z,0
2022-12-15T04:58:02.996Z,0
2022-12-15T04:59:04.927Z,0
2022-12-15T05:00:07.221Z,0
2022-12-15T05:01:10.121Z,0
2022-12-15T05:02:13.639Z,0
2022-12-15T05:03:18.641Z,0
2022-12-15T05:04:21.486Z,0
2022-12-15T05:05:25.084Z,0
2022-12-15T05:06:27.506Z,0
2022-12-15T05:07:30.281Z,0
2022-12-15T05:08:32.772Z,0
2022-12-15T05:09:36.480Z,0
2022-12-15T05:10:40.231Z,0
2022-12-15T05:11:42.999Z,0
2022-12-15T05:12:46.702Z,0
2022-12-15T05:13:49.746Z,0
2022-12-15T05:14:52.239Z,0
2022-12-15T05:15:55.088Z,0
2022-12-15T05:16:58.860Z,0
2022-12-15T05:18:02.282Z,0
2022-12-15T05:19:04.429Z,0
2022-12-15T05:20:06.850Z,0
2022-12-15T05:21:09.935Z,0
2022-12-15T05:22:13.578Z,0
2022-12-15T05:23:16.671Z,0
2022-12-15T05:24:19.824Z,0
2022-12-15T05:25:23.187Z,0
2022-12-15T05:26:26.742Z,0
2022-12-15T05:27:29.431Z,0
2022-12-15T05:28:31.663Z,0
2022-12-15T05:29:35.099Z,0
2022-12-15T05:30:37.832Z,0
2022-12-15T05:31:41.593Z,0
2022-12-15T05:32:44.286Z,0
2022-12-15T05:33:51.365Z,0
2022-12-15T05:34:54.496Z,0
2022-12-15T05:35:57.191Z,0
2022-12-15T05:37:00.242Z,0
2022-12-15T05:38:03.352Z,0
2022-12-15T05:39:05.212Z,0
2022-12-15T05:40:08.265Z,0
2022-12-15T05:41:11.419Z,0
2022-12-15T05:42:15.286Z,0
2022-12-15T05:43:23.108Z,0
2022-12-15T05:44:32.372Z,0
2022-12-15T05:45:35.357Z,0
2022-12-15T05:46:37.830Z,0
2022-12-15T05:47:41.539Z,0
2022-12-15T05:48:44.852Z,0
2022-12-15T05:49:48.170Z,0
2022-12-15T05:50:51.214Z,0
2022-12-15T05:51:54.193Z,0
2022-12-15T05:52:57.105Z,0
2022-12-15T05:53:59.799Z,0
2022-12-15T05:55:03.061Z,0
2022-12-15T05:56:05.842Z,0
2022-12-15T05:57:09.288Z,0
2022-12-15T05:58:13.182Z,0
2022-12-15T05:59:15.966Z,0
2022-12-15T06:00:18.739Z,0
2022-12-15T06:01:21.851Z,0
2022-12-15T06:02:24.660Z,0
2022-12-15T06:03:28.479Z,0
2022-12-15T06:04:34.554Z,0
2022-12-15T06:05:37.926Z,0
2022-12-15T06:06:41.363Z,0
2022-12-15T06:07:44.237Z,0
2022-12-15T06:08:46.459Z,0
2022-12-15T06:09:52.624Z,0
2022-12-15T06:10:56.681Z,0
2022-12-15T06:11:59.826Z,0
2022-12-15T06:13:02.623Z,0
2022-12-15T06:14:06.383Z,0
2022-12-15T06:15:09.404Z,0
2022-12-15T06:16:12.888Z,0
2022-12-15T06:17:16.173Z,0
2022-12-15T06:18:18.908Z,0
2022-12-15T06:19:21.681Z,0
2022-12-15T06:20:24.804Z,0
2022-12-15T06:21:28.248Z,0
2022-12-15T06:22:30.771Z,0
2022-12-15T06:23:33.848Z,0
2022-12-15T06:24:37.177Z,0
2022-12-15T06:25:40.223Z,0
2022-12-15T06:26:42.931Z,0
2022-12-15T06:27:45.707Z,0
2022-12-15T06:28:49.699Z,0
2022-12-15T06:29:53.537Z,0
2022-12-15T06:30:56.603Z,0
2022-12-15T06:31:59.661Z,0
2022-12-15T06:33:03.163Z,0
2022-12-15T06:34:06.529Z,0
2022-12-15T06:35:09.935Z,0
2022-12-15T06:36:12.642Z,4
2022-12-15T06:37:15.697Z,4
2022-12-15T06:38:18.128Z,0
2022-12-15T06:39:21.183Z,0
2022-12-15T06:40:23.601Z,4
2022-12-15T06:41:26.304Z,4
2022-12-15T06:42:29.102Z,4
2022-12-15T06:43:32.256Z,4
2022-12-15T06:44:37.417Z,4
2022-12-15T06:45:41.593Z,8
2022-12-15T06:46:50.681Z,8
2022-12-15T06:47:59.567Z,8
2022-12-15T06:49:04.858Z,12
2022-12-15T06:50:07.833Z,12
2022-12-15T06:51:16.529Z,16
2022-12-15T06:52:19.422Z,20
2022-12-15T06:53:22.787Z,24
2022-12-15T06:54:25.828Z,28
2022-12-15T06:55:28.635Z,36
2022-12-15T06:56:33.816Z,36
2022-12-15T06:57:37.887Z,44
2022-12-15T06:58:41.288Z,52
2022-12-15T06:59:44.442Z,60
2022-12-15T07:00:48.256Z,68
2022-12-15T07:01:50.843Z,80
2022-12-15T07:02:54.625Z,88
2022-12-15T07:03:59.144Z,100
2022-12-15T07:05:05.246Z,116
2022-12-15T07:06:07.974Z,128
2022-12-15T07:07:11.091Z,144
2022-12-15T07:08:13.958Z,160
2022-12-15T07:09:17.045Z,176
2022-12-15T07:10:19.834Z,196
2022-12-15T07:11:23.162Z,220
2022-12-15T07:12:26.542Z,240
2022-12-15T07:13:29.893Z,264
2022-12-15T07:14:35.890Z,292
2022-12-15T07:15:39.266Z,320
2022-12-15T07:16:43.835Z,352
2022-12-15T07:17:46.948Z,376
2022-12-15T07:18:49.919Z,408
2022-12-15T07:19:52.986Z,440
2022-12-15T07:20:54.922Z,472
2022-12-15T07:21:57.627Z,512
2022-12-15T07:23:00.483Z,544
2022-12-15T07:24:03.513Z,584
2022-12-15T07:25:10.021Z,632
2022-12-15T07:26:13.079Z,668
2022-12-15T07:27:15.584Z,708
2022-12-15T07:28:22.587Z,744
2022-12-15T07:29:33.607Z,804
2022-12-15T07:30:38.799Z,852
2022-12-15T07:31:42.643Z,908
2022-12-15T07:32:49.993Z,956
2022-12-15T07:33:53.451Z,1020
2022-12-15T07:34:56.494Z,1076
2022-12-15T07:35:58.973Z,1132
2022-12-15T07:37:02.658Z,1200
2022-12-15T07:38:05.549Z,1264
2022-12-15T07:39:08.658Z,1332
2022-12-15T07:40:11.653Z,1408
2022-12-15T07:41:14.628Z,1484
2022-12-15T07:42:17.678Z,1568
2022-12-15T07:43:20.193Z,1644
2022-12-15T07:44:23.058Z,1728
2022-12-15T07:45:25.880Z,1816
2022-12-15T07:46:29.354Z,1916
2022-12-15T07:47:34.211Z,2012
2022-12-15T07:48:37.748Z,2116
2022-12-15T07:49:41.174Z,2208
2022-12-15T07:50:44.221Z,2344
2022-12-15T07:51:52.222Z,2420
2022-12-15T07:52:55.076Z,2476
2022-12-15T07:53:58.416Z,2616
2022-12-15T07:55:01.474Z,2708
2022-12-15T07:56:07.737Z,2748
2022-12-15T07:57:12.513Z,2852
2022-12-15T07:58:15.010Z,3064
2022-12-15T07:59:18.061Z,3884
2022-12-15T08:00:21.050Z,4384
2022-12-15T08:01:23.969Z,3856
2022-12-15T08:02:28.243Z,4060
2022-12-15T08:03:33.376Z,4788
2022-12-15T08:04:43.042Z,3764
2022-12-15T08:05:45.814Z,3780
2022-12-15T08:06:49.519Z,4084
2022-12-15T08:07:52.933Z,4668
2022-12-15T08:08:56.103Z,5228
2022-12-15T08:09:58.396Z,7292
2022-12-15T08:11:02.101Z,10240
2022-12-15T08:12:05.510Z,12256
2022-12-15T08:13:08.434Z,14048
2022-12-15T08:14:16.839Z,14080
2022-12-15T08:15:23.642Z,14752
2022-12-15T08:16:26.861Z,15840
2022-12-15T08:17:30.587Z,16832
2022-12-15T08:18:33.635Z,17760
2022-12-15T08:19:37.652Z,19040
2022-12-15T08:20:41.655Z,20480
2022-12-15T08:21:44.437Z,21504
2022-12-15T08:22:47.561Z,22336
2022-12-15T08:23:50.608Z,23424
2022-12-15T08:24:53.387Z,24512
2022-12-15T08:25:57.407Z,25216
2022-12-15T08:27:00.551Z,26240
2022-12-15T08:28:03.054Z,27104
2022-12-15T08:30:55.306Z,25184
2022-12-15T08:31:58.421Z,25920
2022-12-15T08:33:02.699Z,25184
2022-12-15T08:34:05.555Z,24992
2022-12-15T08:35:20.051Z,25728
2022-12-15T08:37:00.601Z,26272
2022-12-15T08:38:05.765Z,20608
2022-12-15T08:39:08.844Z,24384
2022-12-15T08:40:12.847Z,28512
2022-12-15T08:41:15.608Z,25504
2022-12-15T08:42:18.390Z,24448
2022-12-15T08:43:20.970Z,25344
2022-12-15T08:44:24.583Z,24736
2022-12-15T08:45:27.022Z,25824
2022-12-15T08:46:30.108Z,30304
2022-12-15T08:47:33.932Z,35808
2022-12-15T08:48:37.061Z,36384
2022-12-15T08:49:40.482Z,37376
2022-12-15T08:50:43.549Z,37984
2022-12-15T08:51:46.878Z,35552
2022-12-15T08:53:14.106Z,30784
2022-12-15T08:54:34.797Z,26784
2022-12-15T08:55:37.231Z,30144
2022-12-15T08:56:40.214Z,31968
2022-12-15T08:57:42.723Z,30496
2022-12-15T08:58:46.297Z,30272
2022-12-15T08:59:49.695Z,32128
2022-12-15T09:00:52.992Z,28608
2022-12-15T09:01:56.666Z,24128
2022-12-15T09:03:00.335Z,26624
2022-12-15T09:04:03.644Z,29824
2022-12-15T09:05:06.741Z,25952
2022-12-15T09:06:10.427Z,22688
2022-12-15T09:07:14.436Z,26656
2022-12-15T09:08:18.453Z,33600
2022-12-15T09:09:21.894Z,35392
2022-12-15T09:10:25.530Z,34016
2022-12-15T09:11:28.401Z,33536
2022-12-15T09:12:32.124Z,29888
2022-12-15T09:13:36.053Z,29440
2022-12-15T09:14:39.169Z,29440
2022-12-15T09:16:08.117Z,28800
2022-12-15T09:17:15.004Z,38592
2022-12-15T09:18:18.465Z,40800
2022-12-15T09:19:22.067Z,40320
2022-12-15T09:20:25.226Z,34592
2022-12-15T09:21:28.673Z,33760
2022-12-15T09:22:32.417Z,37984
2022-12-15T09:23:36.857Z,42080
2022-12-15T09:24:40.176Z,48224
2022-12-15T09:25:43.215Z,50272
2022-12-15T09:26:46.256Z,39776
2022-12-15T09:27:48.734Z,35200
2022-12-15T09:28:52.148Z,44384
2022-12-15T09:29:55.770Z,45376
2022-12-15T09:30:58.899Z,37216
2022-12-15T09:32:02.140Z,35648
2022-12-15T09:33:16.072Z,30432
2022-12-15T09:34:19.407Z,33280
2022-12-15T09:35:22.184Z,36640
2022-12-15T09:36:24.891Z,43168
2022-12-15T09:37:28.248Z,53792
2022-12-15T09:38:31.972Z,58016
2022-12-15T09:39:35.882Z,59392
2022-12-15T09:40:39.019Z,57952
2022-12-15T09:41:41.809Z,58688
2022-12-15T09:42:46.268Z,58976
2022-12-15T09:44:50.636Z,55296
2022-12-15T09:45:54.770Z,58272
2022-12-15T09:46:58.369Z,54144
2022-12-15T09:48:01.424Z,59264
2022-12-15T09:49:04.484Z,58944
2022-12-15T09:50:07.742Z,61792
2022-12-15T09:51:11.533Z,61632
2022-12-15T09:52:14.815Z,63008
2022-12-15T09:53:52.765Z,67200
2022-12-15T09:55:03.428Z,64064
2022-12-15T09:56:06.708Z,64704
2022-12-15T09:57:10.048Z,65152
2022-12-15T09:58:13.378Z,64064
2022-12-15T09:59:15.860Z,62368
2022-12-15T10:00:19.028Z,63584
2022-12-15T10:01:22.426Z,63936
2022-12-15T10:02:26.079Z,64128
2022-12-15T10:03:30.871Z,64608
2022-12-15T10:04:37.584Z,64288
2022-12-15T10:06:05.880Z,68864
2022-12-15T15:04:28.191Z,100
2022-12-15T15:05:31.097Z,72
2022-12-15T15:06:34.665Z,64
2022-12-15T15:07:38.073Z,56
2022-12-15T15:08:41.129Z,44
2022-12-15T15:09:43.822Z,40
2022-12-15T15:10:47.153Z,36
2022-12-15T15:11:51.353Z,36
2022-12-15T15:12:54.802Z,32
2022-12-15T15:13:57.883Z,32
2022-12-15T15:15:01.361Z,24
2022-12-15T15:16:04.676Z,20
2022-12-15T15:17:07.944Z,20
2022-12-15T15:18:12.208Z,20
2022-12-15T15:19:15.861Z,16
2022-12-15T15:20:19.888Z,16
2022-12-15T15:21:22.865Z,12
2022-12-15T15:22:25.847Z,12
2022-12-15T15:23:28.573Z,8
2022-12-15T15:24:32.557Z,12
2022-12-15T15:25:39.771Z,8
2022-12-15T15:26:43.870Z,4
2022-12-15T15:27:46.796Z,4
2022-12-15T15:28:50.057Z,4
2022-12-15T15:29:53.411Z,4
2022-12-15T15:30:56.813Z,4
2022-12-15T15:32:00.079Z,4
2022-12-15T15:33:03.160Z,4
2022-12-15T15:34:06.293Z,0
2022-12-15T15:35:10.068Z,4
2022-12-15T15:36:14.047Z,4
2022-12-15T15:37:18.227Z,0
2022-12-15T15:38:21.175Z,0
2022-12-15T15:39:24.541Z,0
2022-12-15T15:40:27.392Z,0
2022-12-15T15:41:30.091Z,0
2022-12-15T15:42:33.800Z,0
2022-12-15T15:43:36.930Z,0
2022-12-15T15:44:39.815Z,0
2022-12-15T15:45:43.232Z,0
2022-12-15T15:46:46.219Z,0
2022-12-15T15:47:49.290Z,0
2022-12-15T15:48:58.903Z,0
2022-12-15T15:50:02.605Z,0
2022-12-15T15:51:06.010Z,0
2022-12-15T15:52:09.797Z,0
2022-12-15T15:53:13.114Z,0
2022-12-15T15:54:16.520Z,0
2022-12-15T15:55:19.211Z,0
2022-12-15T15:56:22.332Z,0
2022-12-15T15:57:25.315Z,0
2022-12-15T15:58:28.330Z,0
2022-12-15T15:59:34.914Z,0
2022-12-15T16:00:38.339Z,0
2022-12-15T16:01:41.976Z,0
2022-12-15T16:02:45.968Z,0
2022-12-15T16:03:50.084Z,0
2022-12-15T16:04:53.851Z,0
2022-12-15T16:05:56.974Z,0
2022-12-15T16:07:00.338Z,0
2022-12-15T16:08:04.465Z,0
2022-12-15T16:09:07.982Z,0
2022-12-15T16:10:10.970Z,0
2022-12-15T16:11:14.298Z,0
2022-12-15T16:12:17.996Z,0
2022-12-15T16:13:25.910Z,0
2022-12-15T16:14:29.968Z,0
2022-12-15T16:15:32.810Z,0
2022-12-15T16:16:36.082Z,0
2022-12-15T16:17:39.980Z,0
2022-12-15T16:18:43.382Z,0
2022-12-15T16:19:46.359Z,0
2022-12-15T16:20:48.780Z,0
2022-12-15T16:21:51.713Z,0
2022-12-15T16:22:54.421Z,0
2022-12-15T16:23:58.776Z,0
2022-12-15T16:25:02.137Z,0
2022-12-15T16:26:04.876Z,0
2022-12-15T16:27:07.652Z,0
2022-12-15T16:28:10.975Z,0
2022-12-15T16:29:13.753Z,0
2022-12-15T16:30:17.025Z,0
2022-12-15T16:31:20.542Z,0
2022-12-15T16:32:24.714Z,0
2022-12-15T16:33:27.421Z,0
2022-12-15T16:34:30.514Z,0
2022-12-15T16:35:33.867Z,0
2022-12-15T16:36:36.950Z,0
2022-12-15T16:37:39.933Z,0
2022-12-15T16:38:42.689Z,0
2022-12-15T16:39:46.822Z,0
2022-12-15T16:40:49.529Z,0
2022-12-15T16:41:56.832Z,0
2022-12-15T16:43:00.417Z,0
2022-12-15T16:44:03.475Z,0
2022-12-15T16:45:06.324Z,0
2022-12-15T16:46:09.258Z,0
2022-12-15T16:47:12.687Z,0
2022-12-15T16:48:15.824Z,0
2022-12-15T16:49:19.877Z,0
2022-12-15T16:50:23.025Z,0
2022-12-15T16:51:25.597Z,0
2022-12-15T16:52:28.683Z,0
2022-12-15T16:53:31.662Z,0
2022-12-15T16:54:34.758Z,0
2022-12-15T16:55:40.157Z,0
2022-12-15T16:56:43.030Z,0
2022-12-15T16:57:46.374Z,0
2022-12-15T16:58:57.345Z,0
2022-12-15T17:00:38.458Z,0
2022-12-15T17:01:41.722Z,0
2022-12-15T17:02:45.427Z,0
2022-12-15T17:03:50.686Z,0
2022-12-15T17:04:54.195Z,0
2022-12-15T17:05:57.788Z,0
2022-12-15T17:07:01.026Z,0
2022-12-15T17:08:03.806Z,0
2022-12-15T17:09:06.923Z,0
2022-12-15T17:10:10.016Z,0
2022-12-15T17:11:14.127Z,0
2022-12-15T17:12:17.175Z,0
2022-12-15T17:13:20.181Z,0
2022-12-15T17:14:22.682Z,0
2022-12-15T17:15:26.316Z,0
2022-12-15T17:16:30.077Z,0
2022-12-15T17:17:33.961Z,0
2022-12-15T17:18:37.500Z,0
2022-12-15T17:19:52.689Z,0
2022-12-15T17:21:34.563Z,0
2022-12-15T17:22:37.796Z,0
2022-12-15T17:23:41.517Z,0
2022-12-15T17:24:44.415Z,0
2022-12-15T17:26:19.832Z,0
2022-12-15T17:27:33.913Z,0
2022-12-15T17:28:37.331Z,0
2022-12-15T17:29:40.780Z,0
2022-12-15T17:30:43.842Z,0
2022-12-15T17:31:47.588Z,0
2022-12-15T17:32:50.816Z,0
2022-12-15T17:33:53.239Z,0
2022-12-15T17:34:56.566Z,0
2022-12-15T17:35:59.377Z,0
2022-12-15T17:37:01.862Z,0
2022-12-15T17:38:05.207Z,0
2022-12-15T17:39:09.578Z,0
2022-12-15T17:40:12.824Z,0
2022-12-15T17:41:35.364Z,0
2022-12-15T17:43:05.987Z,0
2022-12-15T17:44:32.102Z,0
2022-12-15T17:45:41.268Z,0
2022-12-15T17:46:45.034Z,0
2022-12-15T17:47:48.465Z,0
2022-12-15T17:48:51.539Z,0
2022-12-15T17:49:54.872Z,0
2022-12-15T17:50:58.278Z,0
2022-12-15T17:52:01.357Z,0
2022-12-15T17:53:05.011Z,0
2022-12-15T17:54:07.531Z,0
2022-12-15T17:55:10.674Z,0
2022-12-15T17:56:12.899Z,0
2022-12-15T17:57:15.720Z,0
2022-12-15T17:58:19.338Z,0
2022-12-15T17:59:22.108Z,0
2022-12-15T18:00:25.185Z,0
2022-12-15T18:01:28.609Z,0
2022-12-15T18:02:32.112Z,0
2022-12-15T18:03:37.088Z,0
2022-12-15T18:04:42.040Z,0
2022-12-15T18:05:45.382Z,0
2022-12-15T18:06:48.073Z,0
2022-12-15T18:07:51.406Z,0
2022-12-15T18:08:54.731Z,0
2022-12-15T18:09:57.513Z,0
2022-12-15T18:10:59.666Z,0
2022-12-15T18:12:02.731Z,0
2022-12-15T18:13:05.715Z,0
2022-12-15T18:14:09.696Z,0
2022-12-15T18:15:12.396Z,0
2022-12-15T18:16:15.191Z,0
2022-12-15T18:17:18.975Z,0
2022-12-15T18:18:22.102Z,0
2022-12-15T18:19:27.960Z,0
2022-12-15T18:20:37.638Z,0
2022-12-15T18:21:41.351Z,0
2022-12-15T18:22:44.439Z,0
2022-12-15T18:23:46.976Z,0
2022-12-15T18:24:49.852Z,0
2022-12-15T18:25:53.579Z,0
2022-12-15T18:27:06.176Z,0
2022-12-15T18:28:09.048Z,0
2022-12-15T18:29:12.883Z,0
2022-12-15T18:30:15.722Z,0
2022-12-15T18:31:18.858Z,0
2022-12-15T18:32:22.088Z,0
2022-12-15T18:33:24.940Z,0
2022-12-15T18:34:28.301Z,0
2022-12-15T18:35:31.088Z,0
2022-12-15T18:36:33.977Z,0
2022-12-15T18:37:36.571Z,0
2022-12-15T18:38:40.001Z,0
2022-12-15T18:39:42.978Z,0
2022-12-15T18:40:46.463Z,0
2022-12-15T18:41:49.049Z,0
2022-12-15T18:42:52.192Z,0
2022-12-15T18:43:54.981Z,0
2022-12-15T18:44:58.936Z,0
2022-12-15T18:46:01.345Z,0
2022-12-15T18:47:04.484Z,0
2022-12-15T18:48:09.747Z,0
2022-12-15T18:49:13.087Z,0
2022-12-15T18:50:16.250Z,0
2022-12-15T18:51:19.414Z,0
2022-12-15T18:52:23.074Z,0
2022-12-15T18:53:36.421Z,0
2022-12-15T18:54:39.132Z,0
2022-12-15T18:55:42.474Z,0
2022-12-15T18:56:45.111Z,0
2022-12-15T18:57:47.606Z,0
2022-12-15T18:58:50.099Z,0
2022-12-15T18:59:53.213Z,0
2022-12-15T19:00:57.391Z,0
2022-12-15T19:02:00.925Z,0
2022-12-15T19:03:04.952Z,0
2022-12-15T19:04:09.691Z,0
2022-12-15T19:05:12.389Z,0
2022-12-15T19:06:14.805Z,0
2022-12-15T19:07:19.800Z,0
2022-12-15T19:08:21.941Z,0
2022-12-15T19:09:24.708Z,0
2022-12-15T19:10:27.691Z,0
2022-12-15T19:11:30.459Z,0
2022-12-15T19:12:34.255Z,0
2022-12-15T19:13:37.588Z,0
2022-12-15T19:14:40.007Z,0
2022-12-15T19:15:43.608Z,0
2022-12-15T19:16:48.038Z,0
2022-12-15T19:17:51.553Z,0
2022-12-15T19:18:53.489Z,0
2022-12-15T19:19:56.263Z,0
2022-12-15T19:20:58.206Z,0
2022-12-15T19:22:00.901Z,0
2022-12-15T19:23:03.955Z,0
2022-12-15T19:24:06.678Z,0
2022-12-15T19:25:09.748Z,0
2022-12-15T19:26:12.253Z,0
2022-12-15T19:27:15.681Z,0
2022-12-15T19:28:19.431Z,0
2022-12-15T19:29:22.404Z,0
2022-12-15T19:30:25.734Z,0
2022-12-15T19:31:29.045Z,0
2022-12-15T19:32:33.750Z,0
2022-12-15T19:33:36.517Z,0
2022-12-15T19:34:39.569Z,0
2022-12-15T19:35:42.621Z,0
2022-12-15T19:36:45.402Z,0
2022-12-15T19:37:47.896Z,0
2022-12-15T19:38:51.025Z,0
2022-12-15T19:39:53.555Z,0
2022-12-15T19:40:56.397Z,0
2022-12-15T19:41:59.541Z,0
2022-12-15T19:43:02.029Z,0
2022-12-15T19:44:04.935Z,0
2022-12-15T19:45:08.371Z,0
2022-12-15T19:46:11.476Z,0
2022-12-15T19:47:14.746Z,0
2022-12-15T19:48:23.050Z,0
2022-12-15T19:49:27.068Z,0
2022-12-15T19:50:29.769Z,0
2022-12-15T19:51:33.021Z,0
2022-12-15T19:52:36.656Z,0
2022-12-15T19:53:40.266Z,0
2022-12-15T19:54:43.350Z,0
2022-12-15T19:55:46.191Z,0
2022-12-15T19:56:49.161Z,0
2022-12-15T19:57:51.179Z,0
2022-12-15T19:58:53.327Z,0
2022-12-15T19:59:55.750Z,0
2022-12-15T20:00:58.892Z,0
2022-12-15T20:02:02.007Z,0
2022-12-15T20:03:06.738Z,0
2022-12-15T20:04:11.944Z,0
2022-12-15T20:05:15.063Z,0
2022-12-15T20:06:18.111Z,0
2022-12-15T20:07:21.230Z,0
2022-12-15T20:08:23.813Z,0
2022-12-15T20:09:26.941Z,0
2022-12-15T20:10:32.427Z,0
2022-12-15T20:11:35.963Z,0
2022-12-15T20:12:39.114Z,0
2022-12-15T20:13:41.064Z,0
2022-12-15T20:14:44.469Z,0
2022-12-15T20:15:46.330Z,0
2022-12-15T20:16:49.727Z,0
2022-12-15T20:17:52.970Z,0
2022-12-15T20:18:57.926Z,0
2022-12-15T20:20:02.041Z,0
2022-12-15T20:21:04.907Z,0